createdAt,value
2022-12-29T00:01:42.259Z,12.65
2022-12-29T00:04:15.383Z,13.22
2022-12-29T00:06:43.205Z,12.85
2022-12-29T00:09:11.736Z,13.01
2022-12-29T00:11:38.206Z,12.93
2022-12-29T00:14:26.186Z,12.87
2022-12-29T00:16:52.960Z,12.76
2022-12-29T00:19:38.236Z,13.02
2022-12-29T00:22:23.270Z,12.63
2022-12-29T00:25:08.511Z,12.52
2022-12-29T00:27:53.635Z,12.29
2022-12-29T00:30:41.241Z,12.10
2022-12-29T00:33:35.347Z,11.98
2022-12-29T00:36:07.145Z,11.95
2022-12-29T00:38:56.052Z,12.30
2022-12-29T00:41:41.238Z,12.43
2022-12-29T00:44:11.222Z,12.32
2022-12-29T00:46:40.167Z,12.26
2022-12-29T00:49:27.257Z,12.39
2022-12-29T00:51:54.887Z,12.20
2022-12-29T00:54:21.440Z,12.43
2022-12-29T00:56:49.137Z,12.16
2022-12-29T00:59:15.697Z,11.98
2022-12-29T01:01:43.856Z,12.02
2022-12-29T01:04:11.249Z,12.03
2022-12-29T01:06:39.272Z,11.91
2022-12-29T01:09:26.190Z,12.00
2022-12-29T01:11:52.663Z,12.13
2022-12-29T01:14:20.172Z,12.20
2022-12-29T01:16:47.171Z,12.06
2022-12-29T01:19:15.003Z,12.10
2022-12-29T01:21:41.611Z,12.13
2022-12-29T01:24:08.684Z,12.31
2022-12-29T01:26:35.433Z,12.21
2022-12-29T01:29:01.926Z,12.43
2022-12-29T01:31:28.534Z,12.26
2022-12-29T01:33:55.113Z,12.42
2022-12-29T01:36:21.679Z,12.36
2022-12-29T01:38:48.214Z,12.46
2022-12-29T01:41:16.646Z,12.39
2022-12-29T01:43:48.332Z,12.33
2022-12-29T01:46:41.020Z,12.57
2022-12-29T01:49:27.221Z,12.46
2022-12-29T01:52:00.292Z,12.60
2022-12-29T01:54:39.534Z,12.54
2022-12-29T01:57:11.067Z,12.53
2022-12-29T01:59:44.079Z,12.59
2022-12-29T02:02:11.271Z,12.54
2022-12-29T02:04:45.117Z,12.66
2022-12-29T02:07:19.139Z,12.52
2022-12-29T02:09:49.615Z,12.53
2022-12-29T02:12:18.050Z,12.55
2022-12-29T02:14:45.140Z,12.50
2022-12-29T02:17:35.760Z,12.64
2022-12-29T02:20:38.744Z,12.67
2022-12-29T02:23:35.587Z,12.63
2022-12-29T02:26:32.770Z,12.78
2022-12-29T02:29:21.848Z,13.10
2022-12-29T02:31:54.179Z,13.02
2022-12-29T02:34:46.203Z,13.02
2022-12-29T02:37:21.515Z,13.08
2022-12-29T02:40:15.646Z,13.09
2022-12-29T02:42:52.336Z,12.89
2022-12-29T02:45:34.110Z,12.83
2022-12-29T02:48:15.893Z,12.86
2022-12-29T02:50:51.508Z,12.90
2022-12-29T02:53:43.571Z,12.70
2022-12-29T02:56:10.155Z,13.11
2022-12-29T02:58:36.685Z,12.94
2022-12-29T03:01:28.149Z,13.03
2022-12-29T03:04:16.741Z,13.06
2022-12-29T03:07:10.684Z,13.17
2022-12-29T03:09:43.247Z,13.03
2022-12-29T03:12:25.393Z,12.95
2022-12-29T03:15:22.073Z,13.19
2022-12-29T03:18:11.653Z,13.37
2022-12-29T03:20:43.345Z,13.18
2022-12-29T03:23:11.683Z,13.15
2022-12-29T03:25:42.620Z,12.94
2022-12-29T03:28:18.942Z,13.03
2022-12-29T03:30:46.594Z,12.93
2022-12-29T03:33:18.006Z,13.00
2022-12-29T03:35:47.317Z,12.80
2022-12-29T03:38:20.698Z,13.21
2022-12-29T03:40:50.969Z,13.12
2022-12-29T03:43:18.379Z,13.08
2022-12-29T03:45:44.993Z,13.09
2022-12-29T03:48:11.527Z,13.26
2022-12-29T03:50:38.145Z,13.13
2022-12-29T03:53:04.700Z,13.26
2022-12-29T03:55:31.273Z,13.33
2022-12-29T03:57:57.835Z,13.45
2022-12-29T04:00:24.400Z,13.13
2022-12-29T04:02:51.105Z,13.16
2022-12-29T04:05:17.852Z,13.26
2022-12-29T04:07:44.344Z,13.27
2022-12-29T04:10:10.843Z,13.47
2022-12-29T04:12:37.377Z,13.34
2022-12-29T04:15:04.345Z,13.51
2022-12-29T04:17:30.879Z,13.57
2022-12-29T04:20:17.388Z,13.58
2022-12-29T04:22:44.472Z,13.72
2022-12-29T04:25:11.325Z,13.64
2022-12-29T04:27:37.853Z,13.63
2022-12-29T04:30:04.833Z,13.48
2022-12-29T04:32:31.302Z,13.75
2022-12-29T04:34:57.868Z,13.91
2022-12-29T04:37:24.353Z,13.98
2022-12-29T04:39:50.781Z,14.01
2022-12-29T04:42:17.278Z,13.89
2022-12-29T04:44:45.349Z,13.71
2022-12-29T04:47:12.048Z,13.92
2022-12-29T04:49:38.549Z,13.79
2022-12-29T04:52:05.099Z,13.94
2022-12-29T04:54:31.590Z,14.10
2022-12-29T04:56:58.118Z,13.96
2022-12-29T04:59:24.627Z,13.98
2022-12-29T05:01:51.253Z,13.91
2022-12-29T05:04:17.892Z,14.04
2022-12-29T05:06:44.389Z,13.94
2022-12-29T05:09:10.924Z,14.02
2022-12-29T05:11:37.448Z,13.71
2022-12-29T05:14:03.914Z,14.05
2022-12-29T05:16:30.459Z,13.76
2022-12-29T05:18:56.950Z,13.80
2022-12-29T05:21:23.522Z,13.86
2022-12-29T05:23:50.063Z,14.21
2022-12-29T05:26:16.536Z,14.18
2022-12-29T05:28:43.045Z,14.36
2022-12-29T05:31:09.629Z,14.03
2022-12-29T05:33:36.228Z,13.83
2022-12-29T05:36:07.055Z,13.97
2022-12-29T05:38:34.703Z,14.30
2022-12-29T05:41:01.510Z,14.29
2022-12-29T05:43:28.016Z,14.24
2022-12-29T05:45:55.500Z,13.94
2022-12-29T05:48:22.059Z,14.46
2022-12-29T05:50:49.881Z,14.39
2022-12-29T05:53:16.485Z,15.05
2022-12-29T05:55:48.516Z,14.36
2022-12-29T05:58:16.761Z,14.29
2022-12-29T06:00:44.064Z,14.41
2022-12-29T06:03:11.033Z,14.35
2022-12-29T06:05:37.774Z,14.76
2022-12-29T06:08:04.415Z,14.51
2022-12-29T06:10:30.877Z,14.17
2022-12-29T06:12:57.395Z,14.65
2022-12-29T06:15:23.945Z,14.47
2022-12-29T06:17:50.470Z,14.55
2022-12-29T06:20:17.070Z,14.75
2022-12-29T06:22:43.984Z,14.98
2022-12-29T06:25:10.625Z,14.72
2022-12-29T06:27:37.228Z,14.60
2022-12-29T06:30:04.663Z,14.50
2022-12-29T06:32:31.520Z,14.43
2022-12-29T06:34:58.044Z,14.59
2022-12-29T06:37:24.676Z,14.41
2022-12-29T06:39:51.318Z,14.77
2022-12-29T06:42:17.865Z,14.63
2022-12-29T06:44:44.363Z,14.77
2022-12-29T06:47:11.639Z,14.74
2022-12-29T06:49:38.234Z,14.71
2022-12-29T06:52:10.762Z,15.03
2022-12-29T06:54:39.201Z,14.78
2022-12-29T06:57:05.745Z,14.25
2022-12-29T06:59:32.271Z,14.26
2022-12-29T07:01:58.921Z,14.62
2022-12-29T07:04:25.631Z,14.47
2022-12-29T07:06:52.110Z,14.46
2022-12-29T07:09:18.672Z,14.48
2022-12-29T07:11:45.272Z,14.32
2022-12-29T07:14:12.540Z,14.48
2022-12-29T07:16:39.737Z,14.57
2022-12-29T07:19:06.731Z,14.45
2022-12-29T07:21:33.927Z,14.55
2022-12-29T07:24:00.521Z,14.51
2022-12-29T07:26:31.541Z,14.81
2022-12-29T07:29:02.053Z,14.64
2022-12-29T07:31:28.591Z,14.21
2022-12-29T07:33:55.428Z,14.50
2022-12-29T07:36:21.958Z,14.68
2022-12-29T07:38:48.625Z,14.60
2022-12-29T07:41:15.197Z,14.59
2022-12-29T07:43:41.751Z,14.23
2022-12-29T07:46:13.245Z,14.55
2022-12-29T07:48:56.433Z,14.21
2022-12-29T07:51:22.920Z,14.40
2022-12-29T07:53:50.518Z,14.32
2022-12-29T07:56:17.052Z,14.49
2022-12-29T07:58:43.618Z,14.85
2022-12-29T08:01:10.292Z,14.48
2022-12-29T08:03:37.397Z,14.62
2022-12-29T08:06:04.127Z,14.92
2022-12-29T08:08:30.637Z,14.69
2022-12-29T08:10:57.166Z,14.58
2022-12-29T08:13:24.162Z,14.44
2022-12-29T08:15:50.703Z,14.39
2022-12-29T08:18:17.241Z,14.56
2022-12-29T08:20:43.753Z,14.35
2022-12-29T08:23:10.272Z,14.55
2022-12-29T08:25:36.940Z,14.51
2022-12-29T08:28:03.485Z,14.99
2022-12-29T08:30:30.005Z,14.89
2022-12-29T08:32:56.601Z,14.68
2022-12-29T08:35:23.093Z,14.57
2022-12-29T08:37:49.707Z,14.31
2022-12-29T08:40:16.371Z,14.27
2022-12-29T08:42:42.900Z,15.03
2022-12-29T08:45:10.074Z,14.83
2022-12-29T08:47:37.973Z,14.65
2022-12-29T08:50:06.309Z,14.65
2022-12-29T08:52:32.826Z,14.64
2022-12-29T08:54:59.524Z,14.77
2022-12-29T08:57:26.115Z,14.72
2022-12-29T08:59:52.836Z,14.50
2022-12-29T09:02:24.599Z,14.12
2022-12-29T09:04:52.502Z,14.10
2022-12-29T09:07:19.207Z,14.29
2022-12-29T09:09:45.771Z,13.70
2022-12-29T09:12:12.269Z,13.81
2022-12-29T09:14:38.827Z,13.53
2022-12-29T09:17:23.993Z,13.35
2022-12-29T09:19:50.480Z,13.41
2022-12-29T09:22:17.008Z,13.26
2022-12-29T09:24:43.501Z,13.69
2022-12-29T09:27:10.086Z,13.72
2022-12-29T09:29:36.596Z,13.47
2022-12-29T09:32:05.743Z,13.62
2022-12-29T09:34:34.342Z,13.88
2022-12-29T09:37:00.887Z,13.53
2022-12-29T09:39:27.476Z,13.97
2022-12-29T09:42:06.565Z,14.14
2022-12-29T09:44:56.120Z,13.79
2022-12-29T09:47:25.978Z,13.78
2022-12-29T09:49:57.324Z,13.42
2022-12-29T09:52:29.226Z,13.26
2022-12-29T09:55:25.174Z,12.99
2022-12-29T09:57:59.799Z,13.39
2022-12-29T10:00:55.748Z,13.29
2022-12-29T10:03:25.665Z,13.06
2022-12-29T10:06:12.247Z,13.28
2022-12-29T10:09:01.959Z,13.21
2022-12-29T10:11:45.691Z,13.19
2022-12-29T10:14:15.991Z,13.03
2022-12-29T10:16:48.838Z,12.71
2022-12-29T10:19:35.186Z,13.14
2022-12-29T10:22:28.770Z,12.77
2022-12-29T10:24:56.727Z,13.07
2022-12-29T10:27:23.996Z,12.67
2022-12-29T10:29:56.913Z,12.66
2022-12-29T10:32:39.393Z,12.81
2022-12-29T10:35:40.040Z,12.59
2022-12-29T10:38:31.766Z,12.69
2022-12-29T10:41:05.006Z,12.77
2022-12-29T10:43:40.953Z,12.57
2022-12-29T10:46:13.685Z,12.65
2022-12-29T10:48:40.274Z,13.06
2022-12-29T10:51:09.503Z,13.07
2022-12-29T10:53:58.827Z,13.21
2022-12-29T10:56:31.457Z,13.41
2022-12-29T10:59:00.779Z,12.99
2022-12-29T11:01:39.916Z,13.24
2022-12-29T11:04:11.451Z,13.34
2022-12-29T11:06:38.693Z,13.74
2022-12-29T11:09:20.168Z,13.69
2022-12-29T11:11:46.749Z,13.55
2022-12-29T11:14:36.360Z,13.52
2022-12-29T11:17:05.018Z,14.70
2022-12-29T11:19:39.003Z,15.97
2022-12-29T11:22:22.925Z,15.64
2022-12-29T11:24:51.900Z,14.70
2022-12-29T11:27:24.163Z,14.62
2022-12-29T11:29:52.724Z,14.90
2022-12-29T11:32:28.771Z,16.00
2022-12-29T11:34:58.597Z,16.74
2022-12-29T11:37:32.423Z,17.64
2022-12-29T11:40:27.174Z,16.63
2022-12-29T11:42:57.755Z,15.78
2022-12-29T11:45:29.925Z,17.67
2022-12-29T11:48:13.880Z,17.99
2022-12-29T11:50:42.717Z,16.49
2022-12-29T11:53:17.696Z,15.87
2022-12-29T11:56:06.911Z,15.47
2022-12-29T11:58:35.920Z,15.79
2022-12-29T12:01:07.603Z,16.27
2022-12-29T12:03:39.004Z,16.58
2022-12-29T12:06:11.056Z,16.31
2022-12-29T12:08:48.165Z,15.92
2022-12-29T12:11:25.025Z,16.20
2022-12-29T12:14:00.747Z,16.19
2022-12-29T12:16:38.118Z,16.98
2022-12-29T12:19:16.274Z,16.80
2022-12-29T12:21:47.124Z,17.37
2022-12-29T12:24:40.008Z,16.52
2022-12-29T12:27:16.126Z,15.66
2022-12-29T12:30:04.808Z,16.28
2022-12-29T12:32:47.468Z,15.84
2022-12-29T12:35:21.691Z,15.60
2022-12-29T12:37:57.921Z,15.43
2022-12-29T12:40:46.095Z,15.33
2022-12-29T12:43:33.961Z,15.26
2022-12-29T12:46:21.498Z,15.21
2022-12-29T12:49:07.941Z,15.59
2022-12-29T12:52:07.172Z,16.09
2022-12-29T12:54:58.313Z,16.53
2022-12-29T12:57:30.935Z,16.24
2022-12-29T13:00:03.199Z,15.26
2022-12-29T13:03:04.323Z,15.52
2022-12-29T13:05:43.099Z,15.60
2022-12-29T13:08:21.759Z,15.14
2022-12-29T13:11:12.565Z,15.56
2022-12-29T13:13:54.891Z,14.97
2022-12-29T13:17:17.354Z,14.81
2022-12-29T13:20:11.041Z,15.33
2022-12-29T13:22:40.611Z,15.52
2022-12-29T13:25:34.647Z,17.18
2022-12-29T13:28:07.077Z,17.64
2022-12-29T13:30:50.210Z,17.71
2022-12-29T13:33:28.393Z,17.71
2022-12-29T13:36:32.512Z,16.88
2022-12-29T13:39:04.594Z,16.49
2022-12-29T13:41:36.595Z,15.73
2022-12-29T13:44:05.676Z,15.95
2022-12-29T13:46:44.976Z,15.74
2022-12-29T13:49:17.858Z,16.14
2022-12-29T13:51:57.074Z,15.52
2022-12-29T13:54:26.737Z,15.31
2022-12-29T13:57:00.907Z,15.10
2022-12-29T13:59:42.534Z,15.19
2022-12-29T14:02:46.238Z,15.06
2022-12-29T14:05:33.074Z,14.81
2022-12-29T14:08:06.318Z,15.10
2022-12-29T14:10:36.677Z,15.04
2022-12-29T14:13:13.722Z,14.83
2022-12-29T14:15:43.140Z,14.99
2022-12-29T14:18:17.683Z,14.71
2022-12-29T14:21:08.783Z,14.59
2022-12-29T14:23:35.180Z,15.15
2022-12-29T14:26:07.636Z,14.69
2022-12-29T14:28:42.203Z,15.09
2022-12-29T14:31:17.687Z,15.46
2022-12-29T14:34:09.558Z,16.06
2022-12-29T14:36:40.259Z,16.15
2022-12-29T14:39:32.527Z,15.56
2022-12-29T14:42:06.108Z,15.09
2022-12-29T14:44:33.781Z,14.87
2022-12-29T14:47:07.443Z,14.93
2022-12-29T14:49:44.748Z,14.74
2022-12-29T14:52:20.733Z,14.50
2022-12-29T14:54:52.110Z,14.63
2022-12-29T14:57:26.841Z,14.40
2022-12-29T15:00:03.807Z,14.72
2022-12-29T15:02:39.353Z,15.04
2022-12-29T15:05:20.707Z,15.24
2022-12-29T15:07:50.299Z,14.87
2022-12-29T15:10:20.899Z,14.90
2022-12-29T15:12:54.254Z,14.51
2022-12-29T15:15:25.158Z,14.79
2022-12-29T15:17:52.281Z,14.71
2022-12-29T15:20:32.822Z,14.15
2022-12-29T15:23:04.402Z,14.22
2022-12-29T15:25:32.044Z,13.99
2022-12-29T15:28:03.450Z,14.32
2022-12-29T15:30:30.308Z,14.04
2022-12-29T15:32:57.173Z,14.14
2022-12-29T15:35:29.373Z,14.09
2022-12-29T15:37:56.479Z,14.24
2022-12-29T15:40:33.543Z,13.98
2022-12-29T15:43:05.852Z,13.90
2022-12-29T15:45:35.534Z,13.76
2022-12-29T15:48:03.014Z,13.79
2022-12-29T15:50:33.520Z,14.08
2022-12-29T15:53:01.048Z,13.84
2022-12-29T15:55:35.125Z,13.67
2022-12-29T15:58:06.429Z,13.93
2022-12-29T16:00:36.499Z,13.59
2022-12-29T16:03:06.658Z,13.91
2022-12-29T16:05:38.724Z,14.12
2022-12-29T16:08:24.021Z,14.06
2022-12-29T16:10:51.432Z,13.94
2022-12-29T16:13:42.418Z,14.16
2022-12-29T16:16:17.085Z,14.00
2022-12-29T16:18:45.011Z,13.89
2022-12-29T16:21:24.294Z,13.56
2022-12-29T16:23:53.793Z,13.87
2022-12-29T16:26:23.623Z,13.41
2022-12-29T16:28:57.907Z,13.67
2022-12-29T16:31:36.842Z,13.62
2022-12-29T16:34:23.817Z,13.35
2022-12-29T16:37:01.575Z,13.47
2022-12-29T16:39:35.502Z,13.33
2022-12-29T16:42:22.477Z,13.26
2022-12-29T16:45:20.261Z,13.48
2022-12-29T16:47:48.089Z,13.56
2022-12-29T16:50:28.144Z,13.36
2022-12-29T16:52:55.221Z,13.61
2022-12-29T16:55:25.270Z,13.68
2022-12-29T16:57:58.343Z,12.95
2022-12-29T17:00:27.826Z,13.29
2022-12-29T17:02:59.396Z,12.95
2022-12-29T17:05:25.958Z,13.09
2022-12-29T17:07:53.775Z,12.71
2022-12-29T17:10:20.418Z,12.83
2022-12-29T17:12:51.917Z,12.52
2022-12-29T17:15:34.335Z,12.65
2022-12-29T17:18:06.368Z,12.38
2022-12-29T17:20:36.711Z,12.72
2022-12-29T17:23:24.338Z,12.62
2022-12-29T17:25:57.010Z,12.53
2022-12-29T17:28:32.000Z,12.63
2022-12-29T17:31:05.665Z,12.40
2022-12-29T17:33:38.515Z,12.55
2022-12-29T17:36:05.170Z,12.67
2022-12-29T17:38:35.802Z,12.47
2022-12-29T17:41:02.317Z,12.37
2022-12-29T17:43:36.311Z,12.15
2022-12-29T17:46:06.342Z,12.59
2022-12-29T17:48:32.868Z,12.29
2022-12-29T17:50:59.560Z,12.29
2022-12-29T17:53:28.866Z,12.54
2022-12-29T17:55:55.467Z,12.62
2022-12-29T17:58:31.718Z,12.47
2022-12-29T18:01:00.960Z,12.86
2022-12-29T18:03:30.865Z,12.82
2022-12-29T18:05:58.291Z,12.67
2022-12-29T18:08:24.961Z,12.30
2022-12-29T18:10:53.753Z,12.63
2022-12-29T18:13:30.733Z,12.59
2022-12-29T18:16:02.707Z,12.66
2022-12-29T18:18:29.301Z,12.63
2022-12-29T18:20:59.424Z,12.72
2022-12-29T18:23:28.677Z,12.86
2022-12-29T18:26:00.112Z,12.76
2022-12-29T18:28:27.928Z,12.71
2022-12-29T18:30:56.940Z,12.59
2022-12-29T18:33:26.410Z,13.20
2022-12-29T18:35:55.634Z,12.85
2022-12-29T18:38:22.317Z,12.75
2022-12-29T18:40:49.354Z,12.98
2022-12-29T18:43:18.122Z,13.12
2022-12-29T18:45:48.324Z,12.60
2022-12-29T18:48:16.386Z,12.44
2022-12-29T18:50:43.315Z,12.56
2022-12-29T18:53:24.573Z,12.55
2022-12-29T18:55:52.563Z,12.49
2022-12-29T18:58:19.248Z,12.30
2022-12-29T19:00:46.426Z,12.47
2022-12-29T19:03:14.795Z,12.39
2022-12-29T19:05:43.038Z,12.49
2022-12-29T19:08:10.653Z,12.20
2022-12-29T19:10:38.841Z,12.41
2022-12-29T19:13:06.076Z,12.36
2022-12-29T19:15:35.347Z,12.33
2022-12-29T19:20:53.306Z,12.41
2022-12-29T19:23:22.239Z,12.18
2022-12-29T19:25:49.857Z,12.38
2022-12-29T19:28:26.233Z,12.35
2022-12-29T19:30:57.354Z,12.12
2022-12-29T19:33:24.131Z,12.22
2022-12-29T19:35:51.543Z,12.45
2022-12-29T19:38:18.884Z,12.62
2022-12-29T19:40:48.541Z,12.15
2022-12-29T19:43:15.378Z,12.37
2022-12-29T19:45:43.883Z,12.47
2022-12-29T19:48:19.514Z,12.20
2022-12-29T19:50:46.152Z,12.19
2022-12-29T19:53:13.834Z,12.40
2022-12-29T19:55:44.991Z,12.59
2022-12-29T19:58:11.798Z,12.48
2022-12-29T20:00:40.095Z,12.32
2022-12-29T20:03:06.967Z,12.43
2022-12-29T20:05:33.607Z,13.18
2022-12-29T20:08:00.131Z,12.68
2022-12-29T20:10:26.674Z,12.75
2022-12-29T20:12:53.221Z,12.23
2022-12-29T20:15:19.894Z,12.27
2022-12-29T20:18:12.362Z,12.60
2022-12-29T20:20:34.165Z,12.46
2022-12-29T20:23:00.683Z,12.45
2022-12-29T20:25:46.750Z,12.50
2022-12-29T20:28:15.611Z,12.33
2022-12-29T20:30:42.621Z,12.73
2022-12-29T20:33:09.215Z,12.82
2022-12-29T20:35:36.688Z,12.38
2022-12-29T20:38:03.996Z,12.63
2022-12-29T20:40:30.619Z,12.72
2022-12-29T20:42:57.240Z,12.64
2022-12-29T20:45:23.897Z,12.57
2022-12-29T20:47:50.471Z,12.76
2022-12-29T20:50:17.185Z,12.74
2022-12-29T20:52:43.927Z,12.35
2022-12-29T20:55:10.469Z,12.47
2022-12-29T20:58:05.561Z,12.31
2022-12-29T21:00:23.893Z,12.11
2022-12-29T21:02:50.589Z,12.16
2022-12-29T21:05:25.648Z,12.21
2022-12-29T21:07:53.661Z,11.94
2022-12-29T21:10:21.174Z,11.81
2022-12-29T21:12:48.437Z,12.06
2022-12-29T21:15:15.595Z,11.96
2022-12-29T21:17:45.438Z,12.28
2022-12-29T21:20:19.543Z,11.93
2022-12-29T21:22:49.206Z,11.81
2022-12-29T21:25:15.862Z,12.05
2022-12-29T21:27:45.187Z,11.75
2022-12-29T21:30:12.935Z,11.81
2022-12-29T21:32:40.403Z,12.23
2022-12-29T21:35:08.536Z,12.07
2022-12-29T21:37:36.139Z,12.29
2022-12-29T21:40:02.901Z,12.23
2022-12-29T21:42:29.494Z,12.11
2022-12-29T21:45:20.175Z,12.00
2022-12-29T21:48:07.244Z,12.31
2022-12-29T21:50:36.576Z,12.10
2022-12-29T21:53:04.164Z,11.79
2022-12-29T21:55:30.680Z,12.16
2022-12-29T21:58:15.548Z,11.82
2022-12-29T22:01:00.801Z,11.68
2022-12-29T22:03:46.244Z,11.98
2022-12-29T22:06:31.469Z,11.80
2022-12-29T22:09:16.703Z,11.80
2022-12-29T22:12:02.022Z,12.04
2022-12-29T22:14:28.482Z,11.73
2022-12-29T22:16:54.947Z,11.94
2022-12-29T22:19:21.468Z,11.91
2022-12-29T22:21:48.032Z,11.99
2022-12-29T22:24:14.541Z,11.79
2022-12-29T22:26:41.133Z,11.49
2022-12-29T22:29:07.656Z,11.65
2022-12-29T22:31:34.310Z,11.66
2022-12-29T22:34:03.227Z,11.56
2022-12-29T22:36:30.398Z,11.73
2022-12-29T22:38:57.077Z,11.43
2022-12-29T22:41:24.030Z,11.41
2022-12-29T22:43:50.799Z,11.33
2022-12-29T22:46:17.365Z,11.19
2022-12-29T22:48:44.046Z,11.35
2022-12-29T22:51:10.611Z,11.60
2022-12-29T22:53:37.157Z,11.39
2022-12-29T22:56:09.892Z,11.75
2022-12-29T22:58:43.188Z,11.36
2022-12-29T23:01:11.985Z,11.62
2022-12-29T23:03:39.067Z,11.43
2022-12-29T23:06:07.382Z,11.54
2022-12-29T23:08:36.595Z,11.75
2022-12-29T23:11:04.820Z,11.17
2022-12-29T23:13:31.556Z,11.05
2022-12-29T23:15:58.127Z,11.39
2022-12-29T23:18:24.634Z,10.99
2022-12-29T23:20:51.312Z,11.05
2022-12-29T23:23:43.256Z,11.45
2022-12-29T23:26:15.862Z,11.43
2022-12-29T23:28:42.674Z,11.03
2022-12-29T23:31:09.797Z,10.87
2022-12-29T23:33:36.804Z,11.29
2022-12-29T23:36:04.292Z,10.94
2022-12-29T23:38:30.936Z,11.21
2022-12-29T23:40:57.548Z,11.13
2022-12-29T23:43:24.160Z,11.10
2022-12-29T23:45:51.371Z,11.14
2022-12-29T23:48:18.830Z,11.63
2022-12-29T23:50:45.644Z,11.72
2022-12-29T23:53:12.399Z,11.53
2022-12-29T23:55:42.520Z,11.51
2022-12-29T23:58:09.621Z,11.23
